Terminal Aerodrome Forecast
Issued by NWS

Current Version | Previous Version | Text Only | Print | Product List | Glossary Off
Versions: 1 2 3 4 5 6 7 8 9 10 11 12 13 14 15 16 17 18 19 20 21 22 23 24 25 26 27 28 29 30 31 32 33 34 35

000
FTUS41 KRNK 211128
TAFLWB
TAF
KLWB 211128Z 2112/2212 04003KT 5SM -RA BR BKN090 OVC120
     FM211400 02006KT P6SM SCT004 OVC012
     FM211900 31007KT P6SM OVC018
     FM220000 32008KT P6SM OVC025
     FM220600 31003KT P6SM OVC012=

USA.gov is the U.S. government's official web portal to all federal, state and local government web resources and services.